createdAt,value
2019-05-16T00:00:13.840Z,96993.52
2019-05-16T00:02:44.120Z,96990.09
2019-05-16T00:05:14.276Z,96985.08
2019-05-16T00:07:44.558Z,96983.97
2019-05-16T00:10:14.849Z,96983.97
2019-05-16T00:12:48.668Z,96978.20
2019-05-16T00:15:18.507Z,96980.81
2019-05-16T00:17:49.024Z,96973.34
2019-05-16T00:20:19.297Z,96976.63
2019-05-16T00:22:49.410Z,96972.67
2019-05-16T00:25:19.533Z,96964.62
2019-05-16T00:27:49.767Z,96959.77
2019-05-16T00:30:19.959Z,96959.06
2019-05-16T00:32:50.179Z,96953.30
2019-05-16T00:35:20.389Z,96948.67
2019-05-16T00:37:50.576Z,96950.61
2019-05-16T00:40:20.825Z,96944.41
2019-05-16T00:42:50.948Z,96940.86
2019-05-16T00:45:21.138Z,96945.75
2019-05-16T00:47:51.259Z,96942.20
2019-05-16T00:50:21.412Z,96935.84
2019-05-16T00:52:51.839Z,96934.51
2019-05-16T00:55:21.963Z,96933.08
2019-05-16T00:57:52.128Z,96931.82
2019-05-16T01:00:45.223Z,96925.11
2019-05-16T01:03:15.368Z,96925.11
2019-05-16T01:05:47.903Z,96930.13
2019-05-16T01:08:18.813Z,96927.44
2019-05-16T01:10:51.580Z,96922.07
2019-05-16T01:13:21.083Z,96918.41
2019-05-16T01:15:51.199Z,96922.42
2019-05-16T01:18:21.327Z,96917.93
2019-05-16T01:20:51.445Z,96910.86
2019-05-16T01:23:21.600Z,96905.49
2019-05-16T01:25:51.834Z,96905.49
2019-05-16T01:28:22.084Z,96902.41
2019-05-16T01:30:52.248Z,96904.83
2019-05-16T01:33:22.701Z,96908.77
2019-05-16T01:35:52.826Z,96909.72
2019-05-16T01:38:22.982Z,96904.47
2019-05-16T01:40:53.116Z,96907.31
2019-05-16T01:43:23.275Z,96907.66
2019-05-16T01:45:53.459Z,96906.33
2019-05-16T01:48:23.620Z,96899.25
2019-05-16T01:50:53.960Z,96904.39
2019-05-16T01:53:24.087Z,96901.23
2019-05-16T01:55:54.254Z,96900.75
2019-05-16T01:58:24.452Z,96899.41
2019-05-16T02:01:05.381Z,96902.45
2019-05-16T02:03:28.242Z,96893.06
2019-05-16T02:06:00.152Z,96900.28
2019-05-16T02:08:30.279Z,96899.02
2019-05-16T02:11:00.404Z,96895.98
2019-05-16T02:13:30.563Z,96892.23
2019-05-16T02:16:00.724Z,96894.05
2019-05-16T02:18:30.903Z,96894.99
2019-05-16T02:21:01.490Z,96895.23
2019-05-16T02:23:31.909Z,96900.13
2019-05-16T02:26:02.100Z,96897.20
2019-05-16T02:28:39.784Z,96895.11
2019-05-16T02:31:04.384Z,96888.05
2019-05-16T02:33:34.768Z,96887.92
2019-05-16T02:36:04.937Z,96885.98
2019-05-16T02:38:35.079Z,96886.94
2019-05-16T02:41:05.237Z,96883.74
2019-05-16T02:43:35.362Z,96880.47
2019-05-16T02:46:05.643Z,96881.33
2019-05-16T02:48:35.808Z,96876.17
2019-05-16T02:51:05.939Z,96875.58
2019-05-16T02:53:36.068Z,96866.17
2019-05-16T02:56:06.303Z,96872.11
2019-05-16T02:58:36.426Z,96876.13
2019-05-16T03:01:06.591Z,96864.17
2019-05-16T03:03:36.717Z,96873.77
2019-05-16T03:06:06.891Z,96874.78
2019-05-16T03:08:37.008Z,96873.45
2019-05-16T03:11:07.186Z,96873.45
2019-05-16T03:13:37.300Z,96871.04
2019-05-16T03:16:11.721Z,96873.41
2019-05-16T03:18:42.416Z,96867.80
2019-05-16T03:21:12.635Z,96865.36
2019-05-16T03:23:42.783Z,96869.86
2019-05-16T03:26:12.959Z,96869.50
2019-05-16T03:28:44.123Z,96877.91
2019-05-16T03:31:15.662Z,96870.84
2019-05-16T03:33:56.335Z,96872.42
2019-05-16T03:36:24.351Z,96876.45
2019-05-16T03:38:50.714Z,96877.91
2019-05-16T03:41:21.575Z,96876.68
2019-05-16T03:43:51.824Z,96872.27
2019-05-16T03:46:21.988Z,96876.20
2019-05-16T03:48:52.379Z,96875.81
2019-05-16T03:51:22.615Z,96874.00
2019-05-16T03:53:52.762Z,96878.22
2019-05-16T03:56:22.885Z,96882.75
2019-05-16T03:58:53.072Z,96881.30
2019-05-16T04:01:23.193Z,96887.61
2019-05-16T04:03:53.310Z,96886.77
2019-05-16T04:06:23.450Z,96888.59
2019-05-16T04:08:53.598Z,96884.56
2019-05-16T04:11:23.880Z,96891.39
2019-05-16T04:13:54.267Z,96892.26
2019-05-16T04:16:24.551Z,96890.05
2019-05-16T04:18:54.708Z,96892.84
2019-05-16T04:21:24.892Z,96890.05
2019-05-16T04:23:55.141Z,96888.91
2019-05-16T04:26:30.576Z,96885.63
2019-05-16T04:29:00.985Z,96891.00
2019-05-16T04:31:31.184Z,96896.00
2019-05-16T04:34:01.474Z,96898.84
2019-05-16T04:36:32.763Z,96896.97
2019-05-16T04:39:05.728Z,96894.16
2019-05-16T04:41:35.924Z,96896.65
2019-05-16T04:44:06.224Z,96891.05
2019-05-16T04:46:36.378Z,96890.58
2019-05-16T04:49:06.504Z,96891.33
2019-05-16T04:51:36.631Z,96891.69
2019-05-16T04:54:07.319Z,96887.93
2019-05-16T04:56:41.245Z,96887.22
2019-05-16T04:59:16.166Z,96888.20
2019-05-16T05:01:42.114Z,96888.56
2019-05-16T05:04:15.344Z,96895.66
2019-05-16T05:06:44.081Z,96896.89
2019-05-16T05:09:14.334Z,96901.78
2019-05-16T05:11:44.489Z,96904.34
2019-05-16T05:14:14.607Z,96898.03
2019-05-16T05:16:45.842Z,96902.41
2019-05-16T05:19:16.185Z,96906.33
2019-05-16T05:21:46.461Z,96905.14
2019-05-16T05:24:16.684Z,96904.55
2019-05-16T05:26:46.869Z,96902.25
2019-05-16T05:29:17.054Z,96906.28
2019-05-16T05:31:54.221Z,96906.39
2019-05-16T05:34:20.033Z,96902.73
2019-05-16T05:36:51.181Z,96902.73
2019-05-16T05:39:21.559Z,96901.66
2019-05-16T05:41:51.681Z,96898.50
2019-05-16T05:44:22.535Z,96901.66
2019-05-16T05:46:52.688Z,96904.34
2019-05-16T05:49:22.855Z,96910.58
2019-05-16T05:51:52.976Z,96911.92
2019-05-16T05:54:23.136Z,96910.07
2019-05-16T05:56:53.259Z,96912.75
2019-05-16T05:59:23.374Z,96912.28
2019-05-16T06:01:53.500Z,96912.28
2019-05-16T06:04:23.648Z,96913.27
2019-05-16T06:06:53.832Z,96911.33
2019-05-16T06:09:29.001Z,96912.28
2019-05-16T06:11:55.865Z,96913.50
2019-05-16T06:14:26.260Z,96922.90
2019-05-16T06:16:56.410Z,96921.95
2019-05-16T06:19:26.539Z,96921.47
2019-05-16T06:21:56.668Z,96916.58
2019-05-16T06:24:26.817Z,96923.65
2019-05-16T06:27:00.775Z,96917.80
2019-05-16T06:29:31.051Z,96916.85
2019-05-16T06:32:01.320Z,96917.69
2019-05-16T06:34:31.448Z,96925.74
2019-05-16T06:37:01.579Z,96929.17
2019-05-16T06:39:41.638Z,96920.77
2019-05-16T06:42:04.237Z,96927.83
2019-05-16T06:44:34.371Z,96926.02
2019-05-16T06:47:15.780Z,96921.52
2019-05-16T06:49:36.319Z,96928.22
2019-05-16T06:52:06.498Z,96930.43
2019-05-16T06:54:36.623Z,96929.92
2019-05-16T06:57:06.769Z,96925.89
2019-05-16T06:59:36.983Z,96924.20
2019-05-16T07:02:07.155Z,96923.60
2019-05-16T07:04:39.715Z,96920.91
2019-05-16T07:07:12.493Z,96923.60
2019-05-16T07:09:57.019Z,96919.58
2019-05-16T07:12:12.921Z,96918.23
2019-05-16T07:14:43.038Z,96919.09
2019-05-16T07:17:13.220Z,96923.01
2019-05-16T07:19:43.511Z,96925.30
2019-05-16T07:22:13.730Z,96916.30
2019-05-16T07:24:43.885Z,96913.61
2019-05-16T07:27:14.005Z,96920.68
2019-05-16T07:29:44.169Z,96921.19
2019-05-16T07:32:14.387Z,96925.09
2019-05-16T07:34:45.500Z,96922.77
2019-05-16T07:37:15.626Z,96920.09
2019-05-16T07:39:45.774Z,96918.27
2019-05-16T07:42:16.930Z,96911.95
2019-05-16T07:44:47.046Z,96910.95
2019-05-16T07:47:20.113Z,96910.00
2019-05-16T07:49:50.275Z,96908.91
2019-05-16T07:52:21.080Z,96915.53
2019-05-16T07:54:51.335Z,96907.47
2019-05-16T07:57:23.021Z,96905.63
2019-05-16T07:59:54.253Z,96911.42
2019-05-16T08:02:24.451Z,96906.96
2019-05-16T08:04:54.573Z,96906.05
2019-05-16T08:07:24.729Z,96897.20
2019-05-16T08:09:54.856Z,96897.56
2019-05-16T08:12:26.725Z,96896.73
2019-05-16T08:14:57.119Z,96892.97
2019-05-16T08:17:27.833Z,96888.11
2019-05-16T08:20:00.025Z,96889.93
2019-05-16T08:22:30.719Z,96889.81
2019-05-16T08:25:01.101Z,96888.11
2019-05-16T08:27:31.593Z,96883.09
2019-05-16T08:30:02.621Z,96883.57
2019-05-16T08:32:33.912Z,96875.91
2019-05-16T08:35:04.385Z,96871.13
2019-05-16T08:37:42.568Z,96870.70
2019-05-16T08:40:06.733Z,96867.10
2019-05-16T08:42:37.037Z,96871.22
2019-05-16T08:45:11.928Z,96862.65
2019-05-16T08:47:42.306Z,96866.67
2019-05-16T08:50:14.362Z,96862.65
2019-05-16T08:52:44.083Z,96861.31
2019-05-16T08:55:16.526Z,96864.89
2019-05-16T08:57:47.038Z,96852.42
2019-05-16T09:00:21.437Z,96851.08
2019-05-16T09:02:52.458Z,96848.87
2019-05-16T09:05:22.871Z,96840.33
2019-05-16T09:08:00.390Z,96839.47
2019-05-16T09:12:57.350Z,96835.05
2019-05-16T09:15:27.534Z,96832.88
2019-05-16T09:17:58.257Z,96829.20
2019-05-16T09:20:28.425Z,96824.81
2019-05-16T09:22:58.749Z,96818.11
2019-05-16T09:25:28.980Z,96819.53
2019-05-16T09:27:59.116Z,96823.56
2019-05-16T09:30:29.563Z,96819.53
2019-05-16T09:33:01.492Z,96820.52
2019-05-16T09:35:32.196Z,96816.49
2019-05-16T09:38:02.345Z,96808.91
2019-05-16T09:40:32.805Z,96815.15
2019-05-16T09:43:02.969Z,96813.42
2019-05-16T09:45:33.237Z,96811.60
2019-05-16T09:48:03.447Z,96799.16
2019-05-16T09:50:34.643Z,96805.48
2019-05-16T09:53:07.167Z,96805.48
2019-05-16T09:55:37.462Z,96805.01
2019-05-16T09:58:07.799Z,96807.81
2019-05-16T10:00:37.931Z,96804.73
2019-05-16T10:03:08.212Z,96798.50
2019-05-16T10:05:38.368Z,96804.14
2019-05-16T10:08:09.551Z,96801.58
2019-05-16T10:10:40.107Z,96802.92
2019-05-16T10:13:11.308Z,96798.42
2019-05-16T10:15:41.492Z,96799.37
2019-05-16T10:18:11.610Z,96797.28
2019-05-16T10:20:41.779Z,96791.55
2019-05-16T10:23:14.972Z,96795.58
2019-05-16T10:25:47.712Z,96791.55
2019-05-16T10:28:17.292Z,96794.72
2019-05-16T10:30:50.161Z,96796.19
2019-05-16T10:33:21.803Z,96799.22
2019-05-16T10:35:52.122Z,96790.81
2019-05-16T10:38:23.191Z,96791.77
2019-05-16T10:40:53.335Z,96789.95
2019-05-16T10:43:26.486Z,96786.88
2019-05-16T10:45:56.815Z,96785.17
2019-05-16T10:48:27.241Z,96785.17
2019-05-16T10:50:57.894Z,96786.52
2019-05-16T10:53:58.010Z,96787.86
2019-05-16T10:56:00.368Z,96780.28
2019-05-16T10:58:37.039Z,96781.75
2019-05-16T11:01:18.871Z,96776.97
2019-05-16T11:03:34.350Z,96771.22
2019-05-16T11:06:08.319Z,96769.66
2019-05-16T11:08:39.255Z,96765.25
2019-05-16T11:11:08.465Z,96766.71
2019-05-16T11:13:38.647Z,96758.66
2019-05-16T11:16:09.598Z,96764.50
2019-05-16T11:18:40.528Z,96765.11
2019-05-16T11:21:12.476Z,96764.88
2019-05-16T11:23:42.844Z,96756.81
2019-05-16T11:26:13.711Z,96765.23
2019-05-16T11:28:43.862Z,96753.14
2019-05-16T11:31:17.647Z,96756.31
2019-05-16T11:33:48.260Z,96759.98
2019-05-16T11:36:18.684Z,96755.56
2019-05-16T11:38:48.953Z,96756.31
2019-05-16T11:41:19.151Z,96751.80
2019-05-16T11:43:49.297Z,96752.19
2019-05-16T11:46:19.626Z,96746.44
2019-05-16T11:48:49.316Z,96743.27
2019-05-16T11:51:18.533Z,96744.02
2019-05-16T11:53:47.823Z,96744.14
2019-05-16T11:56:17.961Z,96748.52
2019-05-16T11:58:48.121Z,96748.25
2019-05-16T12:01:18.526Z,96754.61
2019-05-16T12:03:48.660Z,96757.89
2019-05-16T12:06:18.819Z,96754.34
2019-05-16T12:08:48.988Z,96753.48
2019-05-16T12:11:19.119Z,96751.30
2019-05-16T12:13:51.327Z,96750.91
2019-05-16T12:16:21.460Z,96757.27
2019-05-16T12:18:51.936Z,96755.53
2019-05-16T12:21:22.264Z,96756.41
2019-05-16T12:23:52.393Z,96752.85
2019-05-16T12:26:22.744Z,96747.48
2019-05-16T12:28:52.911Z,96747.96
2019-05-16T12:31:23.030Z,96752.97
2019-05-16T12:33:53.189Z,96750.77
2019-05-16T12:36:23.282Z,96761.89
2019-05-16T12:38:53.437Z,96750.89
2019-05-16T12:41:23.615Z,96751.75
2019-05-16T12:43:53.790Z,96761.63
2019-05-16T12:46:24.050Z,96758.55
2019-05-16T12:48:54.170Z,96760.02
2019-05-16T12:51:26.300Z,96760.88
2019-05-16T12:53:57.272Z,96760.48
2019-05-16T12:56:27.524Z,96756.11
2019-05-16T12:58:57.631Z,96754.29
2019-05-16T13:01:34.298Z,96756.47
2019-05-16T13:04:00.451Z,96755.72
2019-05-16T13:06:30.723Z,96753.42
2019-05-16T13:09:00.932Z,96751.69
2019-05-16T13:11:32.671Z,96750.47
2019-05-16T13:14:06.874Z,96750.95
2019-05-16T13:16:37.453Z,96755.48
2019-05-16T13:19:07.123Z,96753.75
2019-05-16T13:21:38.204Z,96752.88
2019-05-16T13:24:08.303Z,96753.75
2019-05-16T13:26:38.540Z,96752.41
2019-05-16T13:29:09.447Z,96748.86
2019-05-16T13:31:39.612Z,96752.88
2019-05-16T13:34:09.739Z,96750.32
2019-05-16T13:36:40.295Z,96751.19
2019-05-16T13:39:10.421Z,96753.99
2019-05-16T13:41:40.728Z,96752.14
2019-05-16T13:44:18.508Z,96749.45
2019-05-16T13:46:42.970Z,96747.77
2019-05-16T13:49:13.134Z,96748.09
2019-05-16T13:51:43.292Z,96749.55
2019-05-16T13:54:13.423Z,96747.19
2019-05-16T13:56:43.577Z,96747.91
2019-05-16T13:59:13.844Z,96746.77
2019-05-16T14:01:45.043Z,96748.11
2019-05-16T14:04:17.366Z,96743.84
2019-05-16T14:06:47.741Z,96748.83
2019-05-16T14:09:18.008Z,96742.23
2019-05-16T14:11:48.209Z,96747.72
2019-05-16T14:14:33.638Z,96743.42
2019-05-16T14:16:50.283Z,96740.83
2019-05-16T14:19:20.460Z,96740.83
2019-05-16T14:21:51.543Z,96743.42
2019-05-16T14:24:21.654Z,96748.20
2019-05-16T14:26:51.812Z,96745.91
2019-05-16T14:29:21.955Z,96742.83
2019-05-16T14:31:52.125Z,96750.76
2019-05-16T14:34:22.244Z,96750.28
2019-05-16T14:36:53.184Z,96749.81
2019-05-16T14:39:23.553Z,96753.83
2019-05-16T14:41:56.453Z,96756.39
2019-05-16T14:44:28.583Z,96760.42
2019-05-16T14:46:58.229Z,96751.15
2019-05-16T14:49:28.995Z,96755.65
2019-05-16T14:51:59.598Z,96753.95
2019-05-16T14:54:29.726Z,96761.25
2019-05-16T14:57:01.360Z,96758.66
2019-05-16T14:59:31.815Z,96765.36
2019-05-16T15:02:01.970Z,96761.42
2019-05-16T15:04:32.124Z,96761.89
2019-05-16T15:07:02.264Z,96757.88
2019-05-16T15:09:32.628Z,96756.92
2019-05-16T15:12:02.984Z,96757.78
2019-05-16T15:14:33.368Z,96762.95
2019-05-16T15:17:03.667Z,96764.29
2019-05-16T15:19:33.843Z,96767.45
2019-05-16T15:22:03.992Z,96761.42
2019-05-16T15:24:34.123Z,96765.44
2019-05-16T15:27:04.276Z,96767.38
2019-05-16T15:29:34.622Z,96770.06
2019-05-16T15:32:06.993Z,96773.13
2019-05-16T15:34:38.106Z,96768.13
2019-05-16T15:37:08.608Z,96764.97
2019-05-16T15:39:38.764Z,96763.54
2019-05-16T15:42:08.894Z,96761.25
2019-05-16T15:44:39.041Z,96761.13
2019-05-16T15:47:09.282Z,96764.68
2019-05-16T15:49:39.434Z,96754.19
2019-05-16T15:52:09.725Z,96750.67
2019-05-16T15:54:40.008Z,96755.05
2019-05-16T15:57:10.161Z,96759.08
2019-05-16T15:59:40.382Z,96767.52
2019-05-16T16:02:10.553Z,96767.99
2019-05-16T16:04:40.819Z,96775.77
2019-05-16T16:07:10.980Z,96770.52
2019-05-16T16:09:41.992Z,96770.64
2019-05-16T16:12:12.109Z,96771.98
2019-05-16T16:14:42.288Z,96770.06
2019-05-16T16:17:12.637Z,96768.52
2019-05-16T16:19:42.975Z,96771.56
2019-05-16T16:22:13.499Z,96767.54
2019-05-16T16:24:44.049Z,96767.50
2019-05-16T16:27:16.586Z,96761.23
2019-05-16T16:29:48.100Z,96760.48
2019-05-16T16:32:18.237Z,96762.89
2019-05-16T16:34:49.127Z,96763.88
2019-05-16T16:37:19.284Z,96764.47
2019-05-16T16:39:49.413Z,96775.03
2019-05-16T16:42:19.669Z,96773.89
2019-05-16T16:44:49.891Z,96780.62
2019-05-16T16:47:20.123Z,96773.13
2019-05-16T16:49:50.345Z,96778.17
2019-05-16T16:52:20.624Z,96779.31
2019-05-16T16:54:50.769Z,96782.15
2019-05-16T16:57:20.995Z,96773.75
2019-05-16T16:59:51.122Z,96780.13
2019-05-16T17:02:22.362Z,96782.22
2019-05-16T17:04:52.499Z,96780.76
2019-05-16T17:07:22.828Z,96790.06
2019-05-16T17:09:53.026Z,96788.61
2019-05-16T17:12:23.881Z,96790.22
2019-05-16T17:14:54.007Z,96792.66
2019-05-16T17:17:26.465Z,96793.05
2019-05-16T17:19:57.241Z,96796.95
2019-05-16T17:22:27.488Z,96800.74
2019-05-16T17:24:57.832Z,96808.32
2019-05-16T17:27:28.075Z,96809.55
2019-05-16T17:30:00.763Z,96806.77
2019-05-16T17:32:30.309Z,96807.40
2019-05-16T17:35:00.636Z,96805.67
2019-05-16T17:37:31.061Z,96801.05
2019-05-16T17:40:01.293Z,96813.52
2019-05-16T17:42:34.479Z,96810.36
2019-05-16T17:45:03.439Z,96817.30
2019-05-16T17:47:37.071Z,96817.81
2019-05-16T17:50:08.591Z,96815.96
2019-05-16T17:52:38.928Z,96816.35
2019-05-16T17:55:09.885Z,96810.11
2019-05-16T17:57:41.081Z,96818.55
2019-05-16T18:00:13.055Z,96815.75
2019-05-16T18:02:43.355Z,96816.70
2019-05-16T18:05:13.562Z,96817.57
2019-05-16T18:07:43.791Z,96821.48
2019-05-16T18:10:16.467Z,96823.80
2019-05-16T18:12:48.076Z,96821.48
2019-05-16T18:15:21.198Z,96828.58
2019-05-16T18:17:51.436Z,96830.79
2019-05-16T18:20:22.431Z,96821.39
2019-05-16T18:22:52.895Z,96831.14
2019-05-16T18:25:23.127Z,96825.78
2019-05-16T18:27:53.271Z,96825.56
2019-05-16T18:30:27.280Z,96820.55
2019-05-16T18:32:57.439Z,96827.66
2019-05-16T18:35:27.656Z,96832.52
2019-05-16T18:37:57.908Z,96824.97
2019-05-16T18:40:28.063Z,96833.86
2019-05-16T18:42:58.397Z,96830.19
2019-05-16T18:45:28.714Z,96830.19
2019-05-16T18:47:58.979Z,96833.71
2019-05-16T18:50:29.133Z,96830.55
2019-05-16T18:52:59.486Z,96831.77
2019-05-16T18:55:29.643Z,96831.77
2019-05-16T18:58:00.087Z,96841.08
2019-05-16T19:00:31.171Z,96841.44
2019-05-16T19:03:01.442Z,96838.75
2019-05-16T19:05:31.649Z,96851.58
2019-05-16T19:08:01.960Z,96848.03
2019-05-16T19:10:32.163Z,96853.19
2019-05-16T19:13:02.830Z,96852.59
2019-05-16T19:15:33.007Z,96852.00
2019-05-16T19:18:03.223Z,96853.22
2019-05-16T19:20:33.378Z,96851.77
2019-05-16T19:23:03.659Z,96850.80
2019-05-16T19:25:33.874Z,96847.64
2019-05-16T19:28:06.523Z,96853.37
2019-05-16T19:30:37.565Z,96852.42
2019-05-16T19:33:08.029Z,96850.12
2019-05-16T19:35:38.472Z,96850.00
2019-05-16T19:38:08.812Z,96853.44
2019-05-16T19:40:40.622Z,96853.44
2019-05-16T19:43:10.855Z,96856.12
2019-05-16T19:45:41.021Z,96856.86
2019-05-16T19:48:11.218Z,96855.52
2019-05-16T19:50:41.389Z,96854.17
2019-05-16T19:53:11.606Z,96858.12
2019-05-16T19:55:41.812Z,96855.31
2019-05-16T19:58:12.889Z,96856.66
2019-05-16T20:00:46.410Z,96848.13
2019-05-16T20:03:16.740Z,96854.83
2019-05-16T20:05:47.689Z,96854.33
2019-05-16T20:08:17.971Z,96849.81
2019-05-16T20:10:49.625Z,96851.02
2019-05-16T20:13:20.009Z,96851.14
2019-05-16T20:15:50.223Z,96854.69
2019-05-16T20:18:20.471Z,96851.41
2019-05-16T20:20:50.709Z,96850.89
2019-05-16T20:23:20.880Z,96853.10
2019-05-16T20:25:51.001Z,96851.77
2019-05-16T20:28:21.154Z,96858.47
2019-05-16T20:30:51.309Z,96858.86
2019-05-16T20:33:21.672Z,96861.28
2019-05-16T20:35:51.797Z,96857.73
2019-05-16T20:38:21.959Z,96850.15
2019-05-16T20:40:52.102Z,96859.55
2019-05-16T20:43:22.309Z,96847.70
2019-05-16T20:45:53.503Z,96851.91
2019-05-16T20:48:23.671Z,96851.47
2019-05-16T20:50:56.456Z,96849.91
2019-05-16T20:53:27.136Z,96849.41
2019-05-16T20:55:57.496Z,96847.11
2019-05-16T20:58:27.928Z,96847.23
2019-05-16T21:01:01.488Z,96848.57
2019-05-16T21:03:29.908Z,96851.14
2019-05-16T21:06:00.195Z,96844.90
2019-05-16T21:08:30.403Z,96844.42
2019-05-16T21:11:00.720Z,96845.02
2019-05-16T21:13:31.284Z,96844.63
2019-05-16T21:16:02.479Z,96847.83
2019-05-16T21:18:32.732Z,96841.86
2019-05-16T21:21:02.861Z,96843.94
2019-05-16T21:23:33.028Z,96845.77
2019-05-16T21:26:03.154Z,96841.34
2019-05-16T21:28:33.382Z,96841.34
2019-05-16T21:31:03.555Z,96836.96
2019-05-16T21:33:33.769Z,96840.00
2019-05-16T21:36:03.990Z,96840.72
2019-05-16T21:38:36.391Z,96837.50
2019-05-16T21:41:07.221Z,96840.39
2019-05-16T21:43:37.791Z,96832.58
2019-05-16T21:46:07.935Z,96835.73
2019-05-16T21:48:38.112Z,96830.10
2019-05-16T21:51:08.296Z,96835.95
2019-05-16T21:53:38.428Z,96834.09
2019-05-16T21:56:08.749Z,96832.37
2019-05-16T21:58:39.037Z,96832.01
2019-05-16T22:01:09.231Z,96828.46
2019-05-16T22:03:41.037Z,96825.78
2019-05-16T22:06:11.247Z,96833.35
2019-05-16T22:08:41.482Z,96828.43
2019-05-16T22:11:11.819Z,96831.11
2019-05-16T22:13:43.011Z,96827.56
2019-05-16T22:16:14.078Z,96825.36
2019-05-16T22:18:47.469Z,96824.88
2019-05-16T22:21:18.977Z,96825.36
2019-05-16T22:23:50.000Z,96816.67
2019-05-16T22:26:21.567Z,96822.91
2019-05-16T22:28:53.789Z,96817.27
2019-05-16T22:31:26.912Z,96811.55
2019-05-16T22:33:58.595Z,96812.02
2019-05-16T22:36:29.969Z,96818.73
2019-05-16T22:39:01.690Z,96814.23
2019-05-16T22:41:34.229Z,96815.66
2019-05-16T22:44:08.641Z,96816.64
2019-05-16T22:46:38.363Z,96819.33
2019-05-16T22:49:09.194Z,96816.17
2019-05-16T22:51:40.591Z,96811.75
2019-05-16T22:54:11.676Z,96811.00
2019-05-16T22:56:42.696Z,96813.09
2019-05-16T22:59:13.309Z,96814.44
2019-05-16T23:01:43.513Z,96812.47
2019-05-16T23:04:13.639Z,96808.80
2019-05-16T23:06:43.773Z,96814.02
2019-05-16T23:09:16.290Z,96813.53
2019-05-16T23:11:46.018Z,96799.25
2019-05-16T23:14:17.020Z,96801.58
2019-05-16T23:16:47.440Z,96805.01
2019-05-16T23:19:17.620Z,96799.25
2019-05-16T23:21:47.744Z,96794.39
2019-05-16T23:24:17.884Z,96796.21
2019-05-16T23:26:48.076Z,96793.14
2019-05-16T23:29:19.207Z,96793.14
2019-05-16T23:31:50.886Z,96784.14
2019-05-16T23:34:21.191Z,96782.91
2019-05-16T23:36:51.310Z,96789.63
2019-05-16T23:39:21.549Z,96786.08
2019-05-16T23:41:51.688Z,96783.39
2019-05-16T23:44:22.048Z,96780.08
2019-05-16T23:46:52.268Z,96782.77
2019-05-16T23:49:22.521Z,96783.59
2019-05-16T23:51:52.821Z,96778.23
2019-05-16T23:54:23.088Z,96776.14
2019-05-16T23:56:53.350Z,96775.52
2019-05-16T23:59:23.643Z,96773.42
